Time;durP1;ratioP1;P1;durP2;ratioP2;P2;SDS_P1;SDS_P2;PMS_P1;PMS_P2;Temp;Humidity;BMP_temperature;BMP_pressure;BME280_temperature;BME280_humidity;BME280_pressure;Samples;Min_cycle;Max_cycle;Signal;HPM_P1;HPM_P2
2020/12/01 00:01:16;;;;;;;27.70;15.87;;;;;6.90;100970.00;;;;10399927;28;20194;-89
2020/12/01 00:06:18;;;;;;;25.53;13.00;;;;;6.90;100959.00;;;;10402896;28;20580;-84
2020/12/01 00:11:20;;;;;;;21.33;11.57;;;;;6.90;100951.00;;;;10418784;28;20214;-84
2020/12/01 00:16:23;;;;;;;13.07;5.77;;;;;6.90;100950.00;;;;10401633;28;20625;-84
2020/12/01 00:21:25;;;;;;;8.30;3.57;;;;;6.90;100963.00;;;;10449978;28;20300;-83
2020/12/01 00:26:27;;;;;;;13.00;3.67;;;;;7.00;100961.00;;;;10409653;28;20214;-82
2020/12/01 00:31:29;;;;;;;14.77;2.87;;;;;7.00;100956.00;;;;10409961;28;20747;-83
2020/12/01 00:36:31;;;;;;;9.43;2.10;;;;;7.00;100955.00;;;;10431822;28;20260;-86
2020/12/01 00:41:34;;;;;;;6.00;1.93;;;;;7.10;100959.00;;;;10409991;28;20199;-84
2020/12/01 00:46:36;;;;;;;10.97;2.20;;;;;7.10;100949.00;;;;10424424;28;20279;-84
2020/12/01 00:51:39;;;;;;;8.00;1.70;;;;;7.10;100965.00;;;;10415462;28;20233;-83
2020/12/01 00:56:41;;;;;;;12.83;2.50;;;;;7.00;100970.00;;;;10400268;28;20210;-85
2020/12/01 01:01:43;;;;;;;11.87;3.40;;;;;7.00;100970.00;;;;10415811;28;20285;-83
2020/12/01 01:06:50;;;;;;;11.37;2.57;;;;;7.10;100979.00;;;;10416572;28;20206;-84
2020/12/01 01:11:53;;;;;;;13.57;2.67;;;;;7.10;100977.00;;;;10409300;28;20221;-85
2020/12/01 01:16:55;;;;;;;13.77;2.03;;;;;7.00;100988.00;;;;10429460;28;20276;-87
2020/12/01 01:21:59;;;;;;;12.70;2.50;;;;;6.90;100981.00;;;;10394207;28;20234;-84
2020/12/01 01:27:01;;;;;;;15.77;2.10;;;;;6.90;100986.00;;;;10413369;28;20214;-83
2020/12/01 01:32:03;;;;;;;12.83;2.20;;;;;6.80;101010.00;;;;10399346;28;20210;-84
2020/12/01 07:08:28;;;;;;;14.97;5.23;;;;;7.50;100979.00;;;;10457551;28;20877;-77
2020/12/01 07:13:50;;;;;;;27.30;7.80;;;;;7.60;100985.00;;;;10433723;28;20844;-78
2020/12/01 07:19:02;;;;;;;19.30;5.73;;;;;7.60;100999.00;;;;10427880;28;20231;-77
2020/12/01 07:24:38;;;;;;;17.33;5.30;;;;;7.50;101008.00;;;;10431714;28;20332;-78
2020/12/01 07:30:00;;;;;;;20.83;6.90;;;;;7.60;101012.00;;;;10419750;28;20202;-78
2020/12/01 07:35:16;;;;;;;22.83;8.47;;;;;7.70;101014.00;;;;10448251;28;20233;-78
2020/12/01 07:40:30;;;;;;;16.37;7.97;;;;;7.70;101027.00;;;;10435068;28;20209;-78
2020/12/01 07:45:32;;;;;;;21.47;6.17;;;;;7.70;101026.00;;;;10427690;28;20310;-78
2020/12/01 07:50:34;;;;;;;20.57;6.47;;;;;7.80;101027.00;;;;10392690;28;20227;-77
2020/12/01 07:56:00;;;;;;;23.43;6.77;;;;;7.80;101044.00;;;;10431325;28;20983;-78
2020/12/01 08:01:14;;;;;;;26.23;6.00;;;;;7.80;101049.00;;;;10433700;28;20208;-79
2020/12/01 08:06:17;;;;;;;18.23;5.53;;;;;7.70;101056.00;;;;10430770;22;20566;-85
2020/12/01 08:11:22;;;;;;;29.90;7.43;;;;;7.70;101056.00;;;;10385234;28;20197;-84
2020/12/01 08:16:29;;;;;;;19.50;5.43;;;;;7.70;101065.00;;;;10359182;28;20262;-86
2020/12/01 08:21:36;;;;;;;17.77;6.00;;;;;7.70;101074.00;;;;10328846;28;20798;-84
2020/12/01 08:26:40;;;;;;;27.53;5.37;;;;;7.70;101085.00;;;;10363092;28;20294;-84
2020/12/01 08:32:21;;;;;;;14.53;5.00;;;;;7.70;101087.00;;;;10353382;28;20206;-84
2020/12/01 08:38:03;;;;;;;26.33;6.10;;;;;7.70;101093.00;;;;10338525;28;20586;-85
2020/12/01 08:43:30;;;;;;;25.17;5.47;;;;;7.70;101103.00;;;;10346737;28;20203;-84
2020/12/01 08:48:38;;;;;;;24.50;4.00;;;;;7.70;101104.00;;;;10347424;28;20269;-85
2020/12/01 08:53:59;;;;;;;20.60;3.67;;;;;7.70;101117.00;;;;10362058;28;20582;-86
2020/12/01 08:59:05;;;;;;;23.23;3.73;;;;;7.70;101128.00;;;;10339567;28;20235;-85
2020/12/01 09:04:20;;;;;;;22.50;3.63;;;;;7.80;101115.00;;;;10325784;28;20223;-87
2020/12/01 09:09:27;;;;;;;13.97;2.90;;;;;7.90;101136.00;;;;10357221;28;20926;-84
2020/12/01 09:14:52;;;;;;;22.10;3.90;;;;;7.90;101110.00;;;;10370088;28;20245;-85
2020/12/01 09:25:27;;;;;;;18.83;3.83;;;;;8.10;101134.00;;;;10349327;28;20207;-85
2020/12/01 09:30:34;;;;;;;13.03;3.07;;;;;8.20;101155.00;;;;10337814;28;20206;-84
2020/12/01 09:35:37;;;;;;;21.23;3.97;;;;;8.50;101153.00;;;;10342003;28;20547;-87
2020/12/01 09:40:40;;;;;;;18.27;3.30;;;;;8.60;101160.00;;;;10362425;28;20654;-82
2020/12/01 09:45:43;;;;;;;19.27;4.07;;;;;8.70;101159.00;;;;10363316;28;20586;-85
2020/12/01 09:50:45;;;;;;;17.07;2.47;;;;;8.80;101174.00;;;;10362046;28;20281;-87
2020/12/01 10:33:58;;;;;;;9.97;3.13;;;;;8.50;101199.00;;;;10372297;28;20218;-86
2020/12/01 10:37:56;;;;;;;18.93;4.30;;;;;8.30;101214.00;;;;10354244;28;20616;-85
2020/12/01 10:42:58;;;;;;;21.83;3.07;;;;;8.40;101207.00;;;;10362291;28;20745;-84
2020/12/01 10:48:01;;;;;;;17.63;4.20;;;;;8.60;101193.00;;;;10353081;28;20215;-84
2020/12/01 10:53:03;;;;;;;21.50;3.17;;;;;8.80;101208.00;;;;10304612;28;21444;-84
2020/12/01 10:58:05;;;;;;;13.57;2.80;;;;;9.00;101202.00;;;;10340464;28;20223;-84
2020/12/01 11:03:07;;;;;;;23.70;3.47;;;;;9.20;101208.00;;;;10331368;28;20272;-83
2020/12/01 11:08:13;;;;;;;23.37;3.80;;;;;9.30;101208.00;;;;10359050;28;20325;-84
2020/12/01 11:13:15;;;;;;;10.20;2.13;;;;;9.40;101208.00;;;;10329146;28;20220;-85
2020/12/01 11:18:17;;;;;;;12.20;2.97;;;;;9.40;101219.00;;;;10341037;28;20783;-85
2020/12/01 11:23:19;;;;;;;10.60;2.33;;;;;9.50;101215.00;;;;10341344;28;21383;-84
2020/12/01 11:28:22;;;;;;;14.20;3.43;;;;;9.80;101213.00;;;;10369481;28;20238;-86
2020/12/01 11:33:24;;;;;;;17.80;3.80;;;;;9.90;101216.00;;;;10331532;28;20219;-86
2020/12/01 11:38:26;;;;;;;20.10;3.60;;;;;9.90;101222.00;;;;10339842;28;20218;-87
2020/12/01 11:43:28;;;;;;;17.40;3.07;;;;;9.90;101227.00;;;;10337618;28;20211;-86
2020/12/01 11:48:30;;;;;;;16.43;3.37;;;;;10.30;101225.00;;;;10337150;28;20302;-86
2020/12/01 11:53:35;;;;;;;18.10;3.33;;;;;10.30;101221.00;;;;10341331;28;20312;-87
2020/12/01 11:58:37;;;;;;;15.70;2.90;;;;;10.20;101220.00;;;;10333744;28;20228;-87
2020/12/01 12:03:39;;;;;;;17.63;4.43;;;;;10.30;101229.00;;;;10378019;28;20211;-86
2020/12/01 12:08:41;;;;;;;16.73;2.97;;;;;10.50;101240.00;;;;10326640;28;20624;-87
2020/12/01 12:13:46;;;;;;;19.07;4.40;;;;;10.70;101227.00;;;;10316106;28;20220;-87
2020/12/01 12:18:48;;;;;;;20.87;4.23;;;;;10.60;101234.00;;;;10320761;28;20215;-87
2020/12/01 12:23:50;;;;;;;18.67;3.37;;;;;10.50;101227.00;;;;10323204;28;20215;-87
2020/12/01 12:28:53;;;;;;;19.47;3.50;;;;;10.60;101232.00;;;;10308889;28;20250;-88
2020/12/01 12:33:56;;;;;;;14.80;3.67;;;;;10.70;101227.00;;;;10324168;28;20230;-88
2020/12/01 12:38:58;;;;;;;21.40;4.27;;;;;10.60;101237.00;;;;10312575;28;20641;-87
2020/12/01 12:44:03;;;;;;;11.07;3.00;;;;;10.50;101231.00;;;;10300990;28;20204;-88
2020/12/01 12:49:06;;;;;;;12.10;3.20;;;;;10.50;101233.00;;;;10309293;28;20219;-86
2020/12/01 12:54:08;;;;;;;16.27;3.80;;;;;10.70;101229.00;;;;10328264;28;20262;-86
2020/12/01 12:59:10;;;;;;;16.40;3.00;;;;;10.70;101231.00;;;;10321180;28;20230;-86
2020/12/01 13:04:12;;;;;;;19.60;3.80;;;;;10.90;101228.00;;;;10303764;28;20342;-83
2020/12/01 13:09:15;;;;;;;22.93;4.50;;;;;10.70;101248.00;;;;10309898;28;20298;-84
2020/12/01 13:14:18;;;;;;;13.30;3.40;;;;;10.50;101249.00;;;;10300045;28;20226;-86
2020/12/01 13:19:21;;;;;;;14.97;3.27;;;;;10.50;101253.00;;;;10327845;28;20362;-86
2020/12/01 13:24:23;;;;;;;21.57;5.40;;;;;10.40;101246.00;;;;10323742;28;20690;-86
2020/12/01 13:29:25;;;;;;;19.43;4.53;;;;;10.00;101241.00;;;;10322575;28;20219;-86
2020/12/01 13:34:31;;;;;;;14.93;4.77;;;;;9.90;101236.00;;;;10343463;28;20690;-83
2020/12/01 13:39:33;;;;;;;18.47;4.03;;;;;10.30;101243.00;;;;10331785;28;20670;-83
2020/12/01 13:44:35;;;;;;;15.57;4.93;;;;;10.50;101252.00;;;;10320884;28;20195;-83
2020/12/01 13:49:38;;;;;;;13.50;3.83;;;;;10.20;101252.00;;;;10302681;28;20421;-85
2020/12/01 13:54:40;;;;;;;15.23;4.77;;;;;9.90;101259.00;;;;10347494;28;20781;-86
2020/12/01 13:59:42;;;;;;;20.20;4.90;;;;;9.90;101267.00;;;;10340325;28;20210;-81
2020/12/01 14:04:45;;;;;;;18.10;5.40;;;;;10.00;101266.00;;;;10312903;28;20216;-84
2020/12/01 14:09:47;;;;;;;21.97;4.53;;;;;9.90;101272.00;;;;10353329;28;20222;-85
2020/12/01 14:14:49;;;;;;;17.60;4.17;;;;;10.00;101277.00;;;;10336371;28;20227;-84
2020/12/01 14:19:55;;;;;;;18.63;3.50;;;;;10.20;101279.00;;;;10354934;28;20219;-84
2020/12/01 14:24:57;;;;;;;15.03;3.83;;;;;10.20;101290.00;;;;10374793;28;20219;-84
2020/12/01 14:29:59;;;;;;;54.87;24.63;;;;;10.00;101288.00;;;;10357009;28;20601;-83
2020/12/01 14:35:01;;;;;;;27.97;11.23;;;;;9.90;101291.00;;;;10340668;28;21043;-83
2020/12/01 14:40:06;;;;;;;23.10;7.17;;;;;9.80;101298.00;;;;10334483;28;20200;-80
2020/12/01 14:45:10;;;;;;;17.47;4.07;;;;;9.70;101306.00;;;;10371944;28;20644;-80
2020/12/01 14:50:37;;;;;;;34.80;13.83;;;;;9.50;101306.00;;;;10337287;28;20211;-84
2020/12/01 14:56:00;;;;;;;23.07;5.63;;;;;9.40;101309.00;;;;10338507;28;20234;-85
2020/12/01 15:01:48;;;;;;;22.23;7.53;;;;;9.30;101315.00;;;;10342841;28;20203;-83
2020/12/01 15:07:21;;;;;;;23.03;9.90;;;;;9.10;101315.00;;;;10363229;28;20745;-82
2020/12/01 15:12:51;;;;;;;15.60;5.17;;;;;9.00;101319.00;;;;10341534;28;20241;-86
2020/12/01 15:17:57;;;;;;;37.37;15.90;;;;;8.80;101329.00;;;;10353118;28;20250;-84
2020/12/01 15:23:47;;;;;;;18.80;5.63;;;;;8.70;101311.00;;;;10344666;28;20254;-84
2020/12/01 15:28:49;;;;;;;26.83;4.30;;;;;8.80;101318.00;;;;10335586;28;20589;-83
2020/12/01 15:33:51;;;;;;;18.33;4.37;;;;;8.80;101321.00;;;;10336923;28;20678;-84
2020/12/01 15:38:53;;;;;;;25.57;8.87;;;;;8.80;101317.00;;;;10370727;28;20238;-83
2020/12/01 15:43:56;;;;;;;22.10;6.97;;;;;8.80;101327.00;;;;10337488;28;20219;-84
2020/12/01 15:49:02;;;;;;;22.60;6.37;;;;;8.70;101326.00;;;;10328924;28;20290;-83
2020/12/01 15:54:26;;;;;;;21.03;7.30;;;;;8.70;101325.00;;;;10319579;28;20226;-82
2020/12/01 16:00:01;;;;;;;19.13;7.20;;;;;8.70;101329.00;;;;10328124;28;20280;-84
2020/12/01 16:05:22;;;;;;;27.07;6.20;;;;;8.60;101331.00;;;;10337937;28;20314;-81
2020/12/01 16:11:06;;;;;;;20.27;6.37;;;;;8.50;101335.00;;;;10324568;28;20336;-80
2020/12/01 16:16:24;;;;;;;43.90;27.10;;;;;8.40;101334.00;;;;10359595;28;20250;-78
2020/12/01 16:21:30;;;;;;;22.50;5.57;;;;;8.30;101336.00;;;;10349807;28;20199;-79
2020/12/01 16:26:47;;;;;;;22.93;6.30;;;;;8.30;101341.00;;;;10368123;28;20254;-80
2020/12/01 16:31:49;;;;;;;23.77;6.17;;;;;8.30;101338.00;;;;10371585;28;20286;-80
2020/12/01 16:37:22;;;;;;;21.43;4.77;;;;;8.20;101329.00;;;;10366023;28;20223;-79
2020/12/01 16:42:55;;;;;;;24.17;6.07;;;;;8.10;101338.00;;;;10346288;28;20240;-76
2020/12/01 16:48:48;;;;;;;21.40;5.63;;;;;8.10;101334.00;;;;10278061;28;20739;-77
2020/12/01 16:54:11;;;;;;;23.17;6.30;;;;;8.10;101348.00;;;;10349635;28;20978;-77
2020/12/01 16:59:42;;;;;;;20.87;8.60;;;;;8.10;101342.00;;;;10320544;28;20257;-78
2020/12/01 17:04:52;;;;;;;25.00;5.97;;;;;8.20;101342.00;;;;10339729;28;20196;-75
2020/12/01 17:10:00;;;;;;;23.67;9.03;;;;;8.20;101344.00;;;;10318562;28;20241;-75
2020/12/01 17:15:30;;;;;;;17.13;4.67;;;;;8.20;101359.00;;;;10326712;28;20241;-76
2020/12/01 17:20:34;;;;;;;19.60;4.77;;;;;8.20;101363.00;;;;10321201;28;20584;-74
2020/12/01 17:25:37;;;;;;;29.10;5.40;;;;;8.20;101372.00;;;;10363980;28;21069;-76
2020/12/01 17:30:43;;;;;;;23.80;5.77;;;;;8.20;101372.00;;;;10375544;28;20202;-76
2020/12/01 17:36:01;;;;;;;21.37;5.13;;;;;8.20;101377.00;;;;10318389;28;20283;-75
2020/12/01 17:41:18;;;;;;;22.93;6.07;;;;;8.30;101368.00;;;;10351894;28;20329;-75
2020/12/01 17:46:34;;;;;;;23.20;8.73;;;;;8.30;101377.00;;;;10367531;28;21051;-76
2020/12/01 17:51:43;;;;;;;24.23;7.90;;;;;8.30;101376.00;;;;10326279;28;20209;-75
2020/12/01 17:56:48;;;;;;;19.07;4.87;;;;;8.30;101375.00;;;;10347179;28;20266;-77
2020/12/01 18:01:51;;;;;;;24.70;6.80;;;;;8.10;101392.00;;;;10322490;28;20207;-75
2020/12/01 18:07:01;;;;;;;19.97;6.33;;;;;8.00;101389.00;;;;10331839;28;20310;-75
2020/12/01 18:12:41;;;;;;;31.53;10.03;;;;;8.00;101397.00;;;;10335316;28;20223;-76
2020/12/01 18:18:15;;;;;;;46.57;22.40;;;;;8.10;101398.00;;;;10372840;28;20314;-76
2020/12/01 18:23:39;;;;;;;57.70;15.97;;;;;8.10;101396.00;;;;10331912;28;20195;-75
2020/12/01 18:28:46;;;;;;;85.43;33.20;;;;;8.10;101395.00;;;;10367720;28;20352;-77
2020/12/01 18:34:09;;;;;;;107.77;37.00;;;;;8.00;101404.00;;;;10336725;28;20216;-76
2020/12/01 18:39:12;;;;;;;42.03;18.20;;;;;8.00;101417.00;;;;10318843;28;20226;-76
2020/12/01 18:44:21;;;;;;;30.63;11.33;;;;;7.90;101407.00;;;;10336334;28;20215;-76
2020/12/01 18:49:24;;;;;;;18.03;7.03;;;;;7.90;101422.00;;;;10344777;28;20215;-75
2020/12/01 18:54:26;;;;;;;26.83;6.50;;;;;7.90;101429.00;;;;10347097;28;20222;-75
2020/12/01 18:59:28;;;;;;;22.50;5.63;;;;;8.00;101425.00;;;;10337890;28;20373;-76
2020/12/01 19:04:30;;;;;;;24.20;6.07;;;;;8.00;101426.00;;;;10331837;28;20235;-75
2020/12/01 19:09:33;;;;;;;18.33;4.87;;;;;8.00;101414.00;;;;10323507;28;20678;-74
2020/12/01 19:14:35;;;;;;;20.00;6.10;;;;;7.90;101414.00;;;;10306227;28;20761;-75
2020/12/01 19:19:37;;;;;;;21.77;5.03;;;;;7.90;101428.00;;;;10313861;28;20230;-75
2020/12/01 19:24:40;;;;;;;19.30;4.60;;;;;7.90;101435.00;;;;10299959;28;20219;-75
2020/12/01 19:29:42;;;;;;;18.93;4.93;;;;;7.90;101446.00;;;;10318451;28;20967;-74
2020/12/01 19:34:45;;;;;;;18.23;5.13;;;;;7.90;101452.00;;;;10343071;28;20325;-75
2020/12/01 19:39:47;;;;;;;21.77;6.97;;;;;7.90;101460.00;;;;10331179;28;20238;-75
2020/12/01 19:44:49;;;;;;;23.73;6.97;;;;;7.80;101460.00;;;;10297148;28;20272;-74
2020/12/01 19:49:52;;;;;;;25.23;8.07;;;;;7.70;101458.00;;;;10328991;28;20212;-75
2020/12/01 19:54:54;;;;;;;25.67;7.50;;;;;7.70;101460.00;;;;10318766;28;20342;-78
2020/12/01 19:59:56;;;;;;;21.80;6.13;;;;;7.80;101470.00;;;;10337187;28;20729;-76
2020/12/01 20:04:59;;;;;;;17.20;6.00;;;;;7.90;101473.00;;;;10304173;28;20298;-75
2020/12/01 20:10:03;;;;;;;16.70;5.13;;;;;7.90;101467.00;;;;10334615;28;20266;-74
2020/12/01 20:15:07;;;;;;;19.87;5.90;;;;;7.90;101482.00;;;;10314511;28;20383;-75
2020/12/01 20:20:10;;;;;;;15.23;5.70;;;;;7.90;101475.00;;;;10311545;28;20270;-76
2020/12/01 20:25:12;;;;;;;25.43;9.67;;;;;7.90;101484.00;;;;10311379;28;20844;-76
2020/12/01 20:30:23;;;;;;;15.87;6.57;;;;;7.90;101486.00;;;;10341653;28;20208;-77
2020/12/01 20:35:26;;;;;;;17.57;7.27;;;;;7.90;101500.00;;;;10316892;28;20227;-77
2020/12/01 20:40:37;;;;;;;26.33;14.00;;;;;7.90;101497.00;;;;10328265;28;20341;-78
2020/12/01 20:45:39;;;;;;;17.17;7.47;;;;;7.90;101498.00;;;;10339770;28;20224;-75
2020/12/01 20:50:42;;;;;;;16.37;7.50;;;;;7.80;101502.00;;;;10338098;28;20618;-75
2020/12/01 20:55:44;;;;;;;15.60;7.03;;;;;7.80;101498.00;;;;10334180;28;20258;-76
2020/12/01 21:00:47;;;;;;;12.13;6.70;;;;;7.80;101507.00;;;;10342736;28;20192;-75
2020/12/01 21:05:50;;;;;;;14.37;7.00;;;;;7.80;101505.00;;;;10350601;28;20306;-76
2020/12/01 21:10:56;;;;;;;12.27;6.87;;;;;7.80;101506.00;;;;10333939;28;20592;-75
2020/12/01 21:15:58;;;;;;;19.73;7.93;;;;;7.80;101512.00;;;;10354914;28;20255;-78
2020/12/01 21:21:03;;;;;;;22.90;8.70;;;;;7.80;101514.00;;;;10361192;28;20278;-77
2020/12/01 21:26:38;;;;;;;14.37;7.83;;;;;7.80;101503.00;;;;10322713;28;20216;-77
2020/12/01 21:31:47;;;;;;;14.93;9.20;;;;;7.80;101512.00;;;;10358688;28;20209;-78
2020/12/01 21:36:52;;;;;;;17.77;10.00;;;;;7.80;101511.00;;;;10341151;28;20316;-77
2020/12/01 21:42:14;;;;;;;15.70;9.87;;;;;7.80;101512.00;;;;10344161;28;20284;-77
2020/12/01 21:47:19;;;;;;;17.27;11.17;;;;;7.70;101521.00;;;;10322496;28;21181;-77
2020/12/01 21:52:55;;;;;;;18.13;10.50;;;;;7.70;101526.00;;;;10369176;28;20238;-76
2020/12/01 21:58:15;;;;;;;19.23;12.30;;;;;7.60;101523.00;;;;10371670;28;20246;-75
2020/12/01 22:03:46;;;;;;;20.97;11.60;;;;;7.60;101526.00;;;;10350523;28;20203;-76
2020/12/01 22:09:27;;;;;;;19.83;12.23;;;;;7.60;101521.00;;;;10330988;28;20222;-76
2020/12/01 22:14:43;;;;;;;22.20;12.13;;;;;7.60;101524.00;;;;10369429;28;20231;-81
2020/12/01 22:19:55;;;;;;;21.37;11.60;;;;;7.70;101527.00;;;;10357795;28;20215;-81
2020/12/01 22:25:28;;;;;;;18.90;11.73;;;;;7.70;101530.00;;;;10361400;28;20223;-80
2020/12/01 22:31:27;;;;;;;20.47;11.07;;;;;7.70;101536.00;;;;10361291;28;20207;-79
2020/12/01 22:36:34;;;;;;;17.13;11.47;;;;;7.70;101533.00;;;;10209713;28;20948;-80
2020/12/01 22:41:47;;;;;;;19.57;12.30;;;;;7.70;101527.00;;;;10355537;28;20210;-79
2020/12/01 22:46:59;;;;;;;23.27;13.30;;;;;7.70;101529.00;;;;10367997;28;21065;-80
2020/12/01 22:52:35;;;;;;;21.37;12.30;;;;;7.70;101529.00;;;;10348399;28;20838;-79
2020/12/01 22:57:49;;;;;;;25.00;12.40;;;;;7.70;101531.00;;;;10346071;28;20971;-81
2020/12/01 23:02:51;;;;;;;19.43;13.43;;;;;7.70;101529.00;;;;10380183;28;20247;-80
2020/12/01 23:08:19;;;;;;;20.10;13.23;;;;;7.70;101524.00;;;;10360537;28;20310;-81
2020/12/01 23:13:43;;;;;;;21.57;14.83;;;;;7.70;101527.00;;;;10358684;28;20286;-82
2020/12/01 23:18:47;;;;;;;21.20;13.73;;;;;7.70;101530.00;;;;10340511;28;20300;-81
2020/12/01 23:23:49;;;;;;;18.47;13.70;;;;;7.70;101528.00;;;;10352477;28;20662;-81
2020/12/01 23:28:54;;;;;;;19.90;13.27;;;;;7.70;101535.00;;;;10362044;28;20226;-81
2020/12/01 23:33:59;;;;;;;23.73;13.80;;;;;7.70;101530.00;;;;10371180;28;23510;-81
2020/12/01 23:39:04;;;;;;;21.20;13.57;;;;;7.60;101533.00;;;;10338360;28;20222;-81
2020/12/01 23:44:34;;;;;;;22.10;14.00;;;;;7.60;101528.00;;;;10356236;28;20217;-81
2020/12/01 23:50:02;;;;;;;18.83;13.43;;;;;7.60;101536.00;;;;10348127;28;20210;-81
2020/12/01 23:55:06;;;;;;;20.17;13.37;;;;;7.60;101530.00;;;;10301897;28;20321;-82
